createdAt,value
2019-02-05T00:02:01.596Z,0.10
2019-02-05T00:04:28.826Z,0.10
2019-02-05T00:06:55.303Z,0.10
2019-02-05T00:09:21.757Z,0.10
2019-02-05T00:11:48.592Z,0.10
2019-02-05T00:14:15.617Z,0.10
2019-02-05T00:16:42.300Z,0.10
2019-02-05T00:19:08.751Z,0.00
2019-02-05T00:21:35.249Z,0.00
2019-02-05T00:24:02.387Z,0.00
2019-02-05T00:26:29.093Z,0.00
2019-02-05T00:28:55.573Z,0.00
2019-02-05T00:31:22.121Z,-0.10
2019-02-05T00:33:49.285Z,-0.10
2019-02-05T00:36:16.028Z,-0.10
2019-02-05T00:38:42.776Z,-0.10
2019-02-05T00:41:09.892Z,-0.20
2019-02-05T00:43:36.370Z,-0.20
2019-02-05T00:46:03.079Z,-0.20
2019-02-05T00:48:29.892Z,-0.20
2019-02-05T00:50:56.949Z,-0.30
2019-02-05T00:53:23.875Z,-0.30
2019-02-05T00:55:50.575Z,-0.30
2019-02-05T00:58:17.283Z,-0.40
2019-02-05T01:00:43.990Z,-0.40
2019-02-05T01:03:10.964Z,-0.40
2019-02-05T01:05:37.661Z,-0.40
2019-02-05T01:08:04.571Z,-0.30
2019-02-05T01:10:31.356Z,-0.40
2019-02-05T01:12:58.180Z,-0.40
2019-02-05T01:15:24.880Z,-0.40
2019-02-05T01:17:51.636Z,-0.40
2019-02-05T01:20:18.564Z,-0.40
2019-02-05T01:22:45.406Z,-0.50
2019-02-05T01:25:12.012Z,-0.40
2019-02-05T01:27:38.491Z,-0.50
2019-02-05T01:30:05.668Z,-0.40
2019-02-05T01:32:32.152Z,-0.50
2019-02-05T01:34:58.609Z,-0.50
2019-02-05T01:37:25.436Z,-0.50
2019-02-05T01:39:51.888Z,-0.40
2019-02-05T01:42:18.620Z,-0.50
2019-02-05T01:44:45.423Z,-0.40
2019-02-05T01:47:11.976Z,-0.40
2019-02-05T01:49:38.556Z,-0.40
2019-02-05T01:52:05.336Z,-0.40
2019-02-05T01:54:32.065Z,-0.40
2019-02-05T01:56:58.517Z,-0.40
2019-02-05T01:59:25.107Z,-0.40
2019-02-05T02:01:51.563Z,-0.40
2019-02-05T02:04:18.292Z,-0.40
2019-02-05T02:06:45.302Z,-0.40
2019-02-05T02:09:11.876Z,-0.50
2019-02-05T02:11:38.608Z,-0.50
2019-02-05T02:14:05.432Z,-0.50
2019-02-05T02:16:31.929Z,-0.50
2019-02-05T02:18:58.748Z,-0.50
2019-02-05T02:21:25.479Z,-0.60
2019-02-05T02:23:52.037Z,-0.50
2019-02-05T02:26:19.009Z,-0.50
2019-02-05T02:28:45.969Z,-0.60
2019-02-05T02:31:12.520Z,-0.60
2019-02-05T02:33:39.247Z,-0.60
2019-02-05T02:36:05.796Z,-0.60
2019-02-05T02:38:32.532Z,-0.60
2019-02-05T02:40:58.984Z,-0.60
2019-02-05T02:43:25.467Z,-0.50
2019-02-05T02:45:52.568Z,-0.50
2019-02-05T02:48:19.369Z,-0.40
2019-02-05T02:50:46.302Z,-0.40
2019-02-05T02:53:13.033Z,-0.50
2019-02-05T02:55:39.584Z,-0.50
2019-02-05T02:58:06.379Z,-0.50
2019-02-05T03:00:32.970Z,-0.50
2019-02-05T03:02:59.516Z,-0.50
2019-02-05T03:05:26.300Z,-0.40
2019-02-05T03:07:52.853Z,-0.40
2019-02-05T03:10:20.455Z,-0.30
2019-02-05T03:12:47.012Z,-0.30
2019-02-05T03:15:13.491Z,-0.30
2019-02-05T03:17:40.764Z,-0.30
2019-02-05T03:20:07.833Z,-0.20
2019-02-05T03:22:34.646Z,-0.20
2019-02-05T03:25:01.547Z,-0.20
2019-02-05T03:27:28.904Z,-0.20
2019-02-05T03:29:55.451Z,-0.30
2019-02-05T03:32:22.646Z,-0.40
2019-02-05T03:34:49.187Z,-0.40
2019-02-05T03:37:16.355Z,-0.50
2019-02-05T03:39:42.912Z,-0.50
2019-02-05T03:42:09.595Z,-0.50
2019-02-05T03:44:36.173Z,-0.50
2019-02-05T03:47:02.720Z,-0.50
2019-02-05T03:49:29.862Z,-0.60
2019-02-05T03:52:08.271Z,-0.60
2019-02-05T03:54:53.196Z,-0.60
2019-02-05T03:57:37.913Z,-0.70
2019-02-05T04:00:22.636Z,-0.70
2019-02-05T04:03:21.045Z,-0.70
2019-02-05T04:05:53.377Z,-0.70
2019-02-05T04:08:23.984Z,-0.60
2019-02-05T04:11:01.068Z,-0.60
2019-02-05T04:13:49.778Z,-0.60
2019-02-05T04:16:51.464Z,-0.80
2019-02-05T04:19:36.202Z,-0.80
2019-02-05T04:22:15.915Z,-0.90
2019-02-05T04:24:47.548Z,-1.00
2019-02-05T04:27:44.967Z,-0.90
2019-02-05T04:30:34.558Z,-0.90
2019-02-05T04:33:38.647Z,-0.80
2019-02-05T04:36:23.591Z,-0.70
2019-02-05T04:39:08.875Z,-0.50
2019-02-05T04:41:55.109Z,-0.50
2019-02-05T04:44:56.356Z,-0.30
2019-02-05T04:47:30.798Z,-0.20
2019-02-05T04:50:17.431Z,-0.20
2019-02-05T04:52:54.957Z,-0.10
2019-02-05T04:55:26.075Z,-0.10
2019-02-05T04:58:01.150Z,-0.10
2019-02-05T05:00:44.500Z,0.00
2019-02-05T05:03:29.680Z,0.00
2019-02-05T05:06:00.317Z,0.00
2019-02-05T05:08:53.077Z,0.00
2019-02-05T05:11:19.629Z,0.00
2019-02-05T05:13:46.208Z,0.00
2019-02-05T05:16:13.021Z,-0.10
2019-02-05T05:18:39.583Z,0.00
2019-02-05T05:21:06.611Z,0.00
2019-02-05T05:23:33.432Z,-0.10
2019-02-05T05:26:00.485Z,0.00
2019-02-05T05:28:27.318Z,0.00
2019-02-05T05:30:54.328Z,0.00
2019-02-05T05:33:21.265Z,0.00
2019-02-05T05:35:47.744Z,0.00
2019-02-05T05:38:14.195Z,0.10
2019-02-05T05:40:41.019Z,0.10
2019-02-05T05:43:07.844Z,0.10
2019-02-05T05:45:34.644Z,0.10
2019-02-05T05:48:01.418Z,0.10
2019-02-05T05:50:28.525Z,0.10
2019-02-05T05:52:55.080Z,0.10
2019-02-05T05:55:21.917Z,0.10
2019-02-05T05:57:48.468Z,0.10
2019-02-05T06:00:16.096Z,0.10
2019-02-05T06:02:42.672Z,0.10
2019-02-05T06:05:09.692Z,0.10
2019-02-05T06:07:36.373Z,0.10
2019-02-05T06:10:06.914Z,0.10
2019-02-05T06:12:32.275Z,0.10
2019-02-05T06:14:59.101Z,0.00
2019-02-05T06:17:26.155Z,0.00
2019-02-05T06:19:52.992Z,-0.10
2019-02-05T06:22:19.787Z,-0.10
2019-02-05T06:24:46.368Z,-0.20
2019-02-05T06:27:13.269Z,-0.20
2019-02-05T06:29:40.330Z,-0.20
2019-02-05T06:32:07.335Z,-0.20
2019-02-05T06:34:34.169Z,-0.20
2019-02-05T06:37:00.962Z,-0.20
2019-02-05T06:39:27.787Z,-0.20
2019-02-05T06:41:54.584Z,-0.20
2019-02-05T06:44:21.160Z,-0.20
2019-02-05T06:46:47.708Z,-0.20
2019-02-05T06:49:14.668Z,-0.20
2019-02-05T06:51:41.547Z,-0.20
2019-02-05T06:54:08.321Z,-0.20
2019-02-05T06:56:34.907Z,-0.20
2019-02-05T06:59:01.921Z,-0.10
2019-02-05T07:01:28.400Z,0.00
2019-02-05T07:03:54.879Z,0.00
2019-02-05T07:06:21.691Z,0.00
2019-02-05T07:08:48.398Z,0.00
2019-02-05T07:11:14.975Z,0.00
2019-02-05T07:13:41.729Z,0.10
2019-02-05T07:16:08.792Z,0.10
2019-02-05T07:18:35.344Z,0.10
2019-02-05T07:21:02.916Z,0.10
2019-02-05T07:23:29.500Z,0.10
2019-02-05T07:25:56.308Z,0.10
2019-02-05T07:28:23.703Z,0.20
2019-02-05T07:30:50.412Z,0.10
2019-02-05T07:33:17.165Z,0.10
2019-02-05T07:35:43.748Z,0.20
2019-02-05T07:38:10.536Z,0.10
2019-02-05T07:40:37.375Z,0.10
2019-02-05T07:43:03.923Z,0.20
2019-02-05T07:45:30.523Z,0.20
2019-02-05T07:47:57.080Z,0.20
2019-02-05T07:50:24.620Z,0.20
2019-02-05T07:52:51.168Z,0.20
2019-02-05T07:55:17.748Z,0.20
2019-02-05T07:57:44.744Z,0.20
2019-02-05T08:00:13.173Z,0.10
2019-02-05T08:02:39.973Z,0.20
2019-02-05T08:05:09.093Z,0.20
2019-02-05T08:07:35.893Z,0.20
2019-02-05T08:10:02.620Z,0.20
2019-02-05T08:12:29.440Z,0.20
2019-02-05T08:14:56.237Z,0.30
2019-02-05T08:17:22.803Z,0.40
2019-02-05T08:19:49.660Z,0.40
2019-02-05T08:22:16.236Z,0.40
2019-02-05T08:24:42.783Z,0.50
2019-02-05T08:27:09.615Z,0.50
2019-02-05T08:29:36.644Z,0.60
2019-02-05T08:32:03.388Z,0.70
2019-02-05T08:34:29.934Z,0.80
2019-02-05T08:36:56.765Z,0.90
2019-02-05T08:39:23.567Z,1.00
2019-02-05T08:41:50.708Z,1.10
2019-02-05T08:44:17.764Z,1.10
2019-02-05T08:46:44.726Z,1.10
2019-02-05T08:49:11.276Z,1.20
2019-02-05T08:51:38.088Z,1.20
2019-02-05T08:54:04.884Z,1.30
2019-02-05T08:56:31.468Z,1.40
2019-02-05T08:58:58.015Z,1.40
2019-02-05T09:01:24.597Z,1.30
2019-02-05T09:03:51.576Z,1.30
2019-02-05T09:06:18.159Z,1.30
2019-02-05T09:08:44.707Z,1.30
2019-02-05T09:11:11.184Z,1.30
2019-02-05T09:13:37.991Z,1.20
2019-02-05T09:16:04.564Z,1.20
2019-02-05T09:18:31.268Z,1.20
2019-02-05T09:20:58.324Z,1.10
2019-02-05T09:23:24.868Z,1.10
2019-02-05T09:25:51.869Z,1.10
2019-02-05T09:28:18.452Z,1.10
2019-02-05T09:30:45.257Z,1.10
2019-02-05T09:33:12.100Z,1.10
2019-02-05T09:35:39.365Z,1.20
2019-02-05T09:38:06.229Z,1.20
2019-02-05T09:40:32.784Z,1.20
2019-02-05T09:42:59.848Z,1.20
2019-02-05T09:45:27.160Z,1.10
2019-02-05T09:47:54.077Z,1.10
2019-02-05T09:50:20.872Z,1.10
2019-02-05T09:52:47.930Z,1.10
2019-02-05T09:55:14.472Z,1.10
2019-02-05T09:57:41.209Z,1.10
2019-02-05T10:00:10.979Z,1.20
2019-02-05T10:02:37.560Z,1.20
2019-02-05T10:05:04.892Z,1.20
2019-02-05T10:07:31.668Z,1.20
2019-02-05T10:09:58.452Z,1.20
2019-02-05T10:12:25.033Z,1.20
2019-02-05T10:14:51.591Z,1.20
2019-02-05T10:17:18.413Z,1.20
2019-02-05T10:19:44.964Z,1.30
2019-02-05T10:22:11.810Z,1.40
2019-02-05T10:24:38.609Z,1.50
2019-02-05T10:27:05.188Z,1.60
2019-02-05T10:29:33.323Z,1.70
2019-02-05T10:32:00.056Z,1.70
2019-02-05T10:34:33.841Z,1.70
2019-02-05T10:36:55.528Z,1.70
2019-02-05T10:39:22.080Z,1.70
2019-02-05T10:41:48.903Z,1.80
2019-02-05T10:44:15.452Z,1.80
2019-02-05T10:46:42.268Z,1.90
2019-02-05T10:49:09.017Z,1.90
2019-02-05T10:51:35.600Z,1.90
2019-02-05T10:54:02.400Z,1.90
2019-02-05T10:56:29.048Z,1.90
2019-02-05T10:58:55.891Z,1.90
2019-02-05T11:01:22.684Z,1.90
2019-02-05T11:03:49.266Z,1.90
2019-02-05T11:06:15.815Z,1.90
2019-02-05T11:08:42.635Z,2.40
2019-02-05T11:11:09.482Z,2.50
2019-02-05T11:13:37.564Z,2.50
2019-02-05T11:16:04.112Z,2.60
2019-02-05T11:18:30.952Z,2.90
2019-02-05T11:20:57.500Z,3.10
2019-02-05T11:23:24.176Z,3.60
2019-02-05T11:25:51.020Z,3.80
2019-02-05T11:28:17.610Z,3.70
2019-02-05T11:30:44.436Z,3.30
2019-02-05T11:33:11.490Z,3.10
2019-02-05T11:35:38.048Z,3.50
2019-02-05T11:38:04.878Z,4.40
2019-02-05T11:40:31.884Z,4.20
2019-02-05T11:42:58.720Z,4.10
2019-02-05T11:45:25.519Z,4.00
2019-02-05T11:47:52.095Z,3.80
2019-02-05T11:50:18.822Z,3.80
2019-02-05T11:52:45.501Z,3.80
2019-02-05T11:55:13.450Z,3.50
2019-02-05T11:57:40.292Z,3.20
2019-02-05T12:00:08.128Z,3.40
2019-02-05T12:02:34.965Z,3.40
2019-02-05T12:05:01.774Z,3.20
2019-02-05T12:07:28.581Z,3.20
2019-02-05T12:09:55.928Z,3.80
2019-02-05T12:12:22.482Z,4.20
2019-02-05T12:14:50.474Z,4.70
2019-02-05T12:17:17.044Z,5.00
2019-02-05T12:19:43.916Z,4.80
2019-02-05T12:22:10.952Z,4.40
2019-02-05T12:24:37.808Z,4.10
2019-02-05T12:27:04.834Z,3.80
2019-02-05T12:29:31.668Z,3.50
2019-02-05T12:31:58.401Z,3.50
2019-02-05T12:34:24.981Z,3.90
2019-02-05T12:36:52.113Z,4.60
2019-02-05T12:39:18.962Z,5.30
2019-02-05T12:41:45.764Z,5.70
2019-02-05T12:44:12.588Z,6.40
2019-02-05T12:46:39.136Z,5.50
2019-02-05T12:49:05.623Z,4.70
2019-02-05T12:51:32.673Z,4.10
2019-02-05T12:53:59.416Z,3.70
2019-02-05T12:56:26.115Z,3.50
2019-02-05T12:58:52.924Z,3.20
2019-02-05T13:01:19.624Z,3.00
2019-02-05T13:03:46.360Z,2.90
2019-02-05T13:06:13.136Z,2.90
2019-02-05T13:08:40.100Z,2.90
2019-02-05T13:11:06.552Z,2.90
2019-02-05T13:13:33.294Z,2.90
2019-02-05T13:16:00.727Z,2.90
2019-02-05T13:18:27.784Z,2.90
2019-02-05T13:20:54.492Z,2.90
2019-02-05T13:23:21.324Z,2.80
2019-02-05T13:25:47.868Z,2.70
2019-02-05T13:28:14.748Z,2.60
2019-02-05T13:30:41.449Z,2.60
2019-02-05T13:33:08.107Z,2.50
2019-02-05T13:35:34.929Z,2.50
2019-02-05T13:38:01.624Z,2.50
2019-02-05T13:40:28.568Z,2.50
2019-02-05T13:42:55.020Z,2.40
2019-02-05T13:45:22.961Z,2.40
2019-02-05T13:47:49.968Z,2.40
2019-02-05T13:50:17.893Z,2.40
2019-02-05T13:52:44.976Z,2.40
2019-02-05T13:55:13.076Z,2.40
2019-02-05T13:57:40.039Z,2.40
2019-02-05T14:00:08.757Z,2.40
2019-02-05T14:02:35.307Z,2.30
2019-02-05T14:05:02.144Z,2.40
2019-02-05T14:07:28.596Z,2.40
2019-02-05T14:09:55.440Z,2.40
2019-02-05T14:12:22.164Z,2.40
2019-02-05T14:14:49.168Z,2.40
2019-02-05T14:17:15.967Z,2.40
2019-02-05T14:19:42.516Z,2.50
2019-02-05T14:22:09.199Z,2.40
2019-02-05T14:24:35.948Z,2.40
2019-02-05T14:27:02.668Z,2.40
2019-02-05T14:29:29.504Z,2.50
2019-02-05T14:31:56.208Z,2.50
2019-02-05T14:34:22.865Z,2.60
2019-02-05T14:36:49.577Z,2.60
2019-02-05T14:39:16.060Z,2.60
2019-02-05T14:41:42.753Z,2.60
2019-02-05T14:44:09.236Z,2.60
2019-02-05T14:46:35.788Z,2.60
2019-02-05T14:49:02.654Z,2.60
2019-02-05T14:51:29.419Z,2.60
2019-02-05T14:53:56.504Z,2.60
2019-02-05T14:56:23.562Z,2.60
2019-02-05T14:58:50.100Z,2.50
2019-02-05T15:01:16.844Z,2.50
2019-02-05T15:03:43.773Z,2.50
2019-02-05T15:06:10.643Z,2.50
2019-02-05T15:08:38.071Z,2.50
2019-02-05T15:11:04.820Z,2.40
2019-02-05T15:13:31.524Z,2.50
2019-02-05T15:15:58.011Z,2.50
2019-02-05T15:18:24.812Z,2.40
2019-02-05T15:20:51.659Z,2.50
2019-02-05T15:23:18.360Z,2.50
2019-02-05T15:25:45.339Z,2.50
2019-02-05T15:28:12.044Z,2.50
2019-02-05T15:30:42.046Z,2.40
2019-02-05T15:33:15.948Z,2.40
2019-02-05T15:35:47.512Z,2.40
2019-02-05T15:38:13.968Z,2.30
2019-02-05T15:40:40.556Z,2.30
2019-02-05T15:43:07.260Z,2.30
2019-02-05T15:45:34.084Z,2.30
2019-02-05T15:48:00.536Z,2.20
2019-02-05T15:50:27.034Z,2.20
2019-02-05T15:52:53.579Z,2.10
2019-02-05T15:55:21.023Z,2.10
2019-02-05T15:57:47.724Z,2.10
2019-02-05T16:00:14.756Z,2.10
2019-02-05T16:02:41.461Z,2.10
2019-02-05T16:05:08.032Z,2.10
2019-02-05T16:07:34.480Z,2.10
2019-02-05T16:10:00.967Z,2.10
2019-02-05T16:12:27.423Z,2.00
2019-02-05T16:14:54.314Z,2.00
2019-02-05T16:17:20.765Z,2.00
2019-02-05T16:19:48.893Z,2.00
2019-02-05T16:22:15.338Z,2.00
2019-02-05T16:24:41.905Z,2.00
2019-02-05T16:27:08.487Z,2.00
2019-02-05T16:29:34.936Z,2.00
2019-02-05T16:32:01.428Z,2.10
2019-02-05T16:34:28.140Z,2.10
2019-02-05T16:36:54.981Z,2.10
2019-02-05T16:39:21.825Z,2.10
2019-02-05T16:41:48.317Z,2.10
2019-02-05T16:44:14.769Z,2.10
2019-02-05T16:46:41.610Z,2.10
2019-02-05T16:49:08.064Z,2.10
2019-02-05T16:51:34.560Z,2.10
2019-02-05T16:54:01.013Z,2.00
2019-02-05T16:56:27.532Z,2.10
2019-02-05T16:58:54.375Z,2.00
2019-02-05T17:01:21.117Z,2.00
2019-02-05T17:03:50.224Z,2.00
2019-02-05T17:06:17.067Z,2.00
2019-02-05T17:08:43.993Z,2.00
2019-02-05T17:11:10.741Z,2.00
2019-02-05T17:13:37.716Z,2.00
2019-02-05T17:16:04.476Z,2.00
2019-02-05T17:18:31.479Z,1.90
2019-02-05T17:20:58.232Z,1.90
2019-02-05T17:23:24.683Z,1.90
2019-02-05T17:25:51.401Z,1.90
2019-02-05T17:28:18.327Z,1.90
2019-02-05T17:30:44.816Z,1.90
2019-02-05T17:33:11.504Z,1.90
2019-02-05T17:35:38.297Z,1.90
2019-02-05T17:38:05.796Z,1.90
2019-02-05T17:40:32.472Z,1.90
2019-02-05T17:42:59.400Z,1.90
2019-02-05T17:45:29.869Z,1.90
2019-02-05T17:47:57.032Z,1.90
2019-02-05T17:50:24.200Z,1.80
2019-02-05T17:52:50.998Z,1.70
2019-02-05T17:55:17.868Z,1.70
2019-02-05T17:57:44.363Z,1.70
2019-02-05T18:00:12.734Z,1.60
2019-02-05T18:02:51.105Z,1.70
2019-02-05T18:05:09.096Z,1.60
2019-02-05T18:07:35.640Z,1.60
2019-02-05T18:10:02.394Z,1.60
2019-02-05T18:12:29.371Z,1.60
2019-02-05T18:14:55.968Z,1.60
2019-02-05T18:17:22.468Z,1.60
2019-02-05T18:19:48.921Z,1.60
2019-02-05T18:22:15.505Z,1.60
2019-02-05T18:24:42.304Z,1.60
2019-02-05T18:27:09.052Z,1.70
2019-02-05T18:29:35.755Z,1.70
2019-02-05T18:32:02.781Z,1.70
2019-02-05T18:34:29.331Z,1.70
2019-02-05T18:36:56.316Z,1.70
2019-02-05T18:39:22.755Z,1.70
2019-02-05T18:41:49.503Z,1.80
2019-02-05T18:44:16.307Z,1.80
2019-02-05T18:46:42.896Z,1.80
2019-02-05T18:49:09.347Z,1.80
2019-02-05T18:51:36.328Z,1.90
2019-02-05T18:54:02.930Z,1.90
2019-02-05T18:56:29.483Z,1.90
2019-02-05T18:58:56.220Z,1.90
2019-02-05T19:01:23.132Z,1.90
2019-02-05T19:03:49.624Z,1.90
2019-02-05T19:06:16.315Z,1.90
2019-02-05T19:08:42.804Z,1.90
2019-02-05T19:11:09.799Z,1.90
2019-02-05T19:13:36.345Z,1.90
2019-02-05T19:16:02.788Z,1.80
2019-02-05T19:18:29.284Z,1.80
2019-02-05T19:20:55.984Z,1.80
2019-02-05T19:23:22.719Z,1.70
2019-02-05T19:26:08.586Z,1.70
2019-02-05T19:28:36.424Z,1.70
2019-02-05T19:31:07.564Z,1.70
2019-02-05T19:33:34.564Z,1.70
2019-02-05T19:36:01.014Z,1.70
2019-02-05T19:38:28.159Z,1.70
2019-02-05T19:40:57.594Z,1.70
2019-02-05T19:43:23.688Z,1.80
2019-02-05T19:46:25.538Z,1.80
2019-02-05T19:48:56.757Z,1.70
2019-02-05T19:51:23.584Z,1.70
2019-02-05T19:53:50.408Z,1.70
2019-02-05T19:56:16.861Z,1.60
2019-02-05T19:58:43.589Z,1.60
2019-02-05T20:01:10.527Z,1.50
2019-02-05T20:03:39.058Z,1.50
2019-02-05T20:06:05.824Z,1.50
2019-02-05T20:08:32.647Z,1.50
2019-02-05T20:10:59.452Z,1.40
2019-02-05T20:13:26.040Z,1.40
2019-02-05T20:15:52.893Z,1.40
2019-02-05T20:18:19.607Z,1.40
2019-02-05T20:20:46.645Z,1.40
2019-02-05T20:23:13.476Z,1.30
2019-02-05T20:25:40.156Z,1.40
2019-02-05T20:28:06.883Z,1.40
2019-02-05T20:30:33.583Z,1.40
2019-02-05T20:33:00.516Z,1.30
2019-02-05T20:35:27.215Z,1.30
2019-02-05T20:37:53.660Z,1.30
2019-02-05T20:40:20.470Z,1.30
2019-02-05T20:42:46.992Z,1.30
2019-02-05T20:45:13.799Z,1.30
2019-02-05T20:47:40.829Z,1.30
2019-02-05T20:50:08.772Z,1.20
2019-02-05T20:52:35.469Z,1.20
2019-02-05T20:55:02.320Z,1.20
2019-02-05T20:57:29.421Z,1.20
2019-02-05T20:59:56.292Z,1.20
2019-02-05T21:02:22.921Z,1.20
2019-02-05T21:04:49.652Z,1.20
2019-02-05T21:07:16.801Z,1.20
2019-02-05T21:09:43.540Z,1.20
2019-02-05T21:12:10.319Z,1.20
2019-02-05T21:14:37.048Z,1.10
2019-02-05T21:17:03.951Z,1.10
2019-02-05T21:19:31.077Z,1.10
2019-02-05T21:21:57.868Z,1.10
2019-02-05T21:24:24.342Z,1.00
2019-02-05T21:26:51.371Z,1.00
2019-02-05T21:29:18.071Z,1.00
2019-02-05T21:31:44.756Z,0.90
2019-02-05T21:34:15.023Z,0.90
2019-02-05T21:36:40.081Z,0.90
2019-02-05T21:39:08.268Z,0.90
2019-02-05T21:41:34.968Z,0.90
2019-02-05T21:44:01.425Z,0.90
2019-02-05T21:46:27.906Z,0.90
2019-02-05T21:48:54.364Z,0.80
2019-02-05T21:51:20.967Z,0.80
2019-02-05T21:53:47.515Z,0.80
2019-02-05T21:56:14.209Z,0.70
2019-02-05T21:58:41.084Z,0.80
2019-02-05T22:01:08.014Z,0.70
2019-02-05T22:03:34.803Z,0.70
2019-02-05T22:06:01.356Z,0.70
2019-02-05T22:08:28.445Z,0.60
2019-02-05T22:10:55.211Z,0.70
2019-02-05T22:13:22.003Z,0.60
2019-02-05T22:15:49.045Z,0.60
2019-02-05T22:18:15.595Z,0.60
2019-02-05T22:20:42.404Z,0.60
2019-02-05T22:23:09.484Z,0.60
2019-02-05T22:25:36.300Z,0.50
2019-02-05T22:28:02.856Z,0.40
2019-02-05T22:30:30.484Z,0.40
2019-02-05T22:32:57.269Z,0.30
2019-02-05T22:35:23.832Z,0.30
2019-02-05T22:37:50.833Z,0.20
2019-02-05T22:40:18.382Z,0.20
2019-02-05T22:42:44.927Z,0.20
2019-02-05T22:45:11.953Z,0.20
2019-02-05T22:47:38.984Z,0.10
2019-02-05T22:50:07.644Z,0.10
2019-02-05T22:52:34.452Z,0.00
2019-02-05T22:55:01.456Z,-0.10
2019-02-05T22:57:28.008Z,-0.10
2019-02-05T22:59:54.819Z,-0.20
2019-02-05T23:02:21.624Z,-0.30
2019-02-05T23:05:23.204Z,-0.30
2019-02-05T23:07:50.080Z,-0.40
2019-02-05T23:10:36.827Z,-0.40
2019-02-05T23:13:08.073Z,-0.50
2019-02-05T23:15:35.448Z,-0.50
2019-02-05T23:18:02.376Z,-0.50
2019-02-05T23:20:29.623Z,-0.50
2019-02-05T23:22:57.099Z,-0.50
2019-02-05T23:25:24.077Z,-0.50
2019-02-05T23:27:50.776Z,-0.60
2019-02-05T23:30:21.319Z,-0.60
2019-02-05T23:32:48.030Z,-0.60
2019-02-05T23:35:14.792Z,-0.60
2019-02-05T23:37:42.032Z,-0.70
2019-02-05T23:40:08.730Z,-0.70
2019-02-05T23:42:35.276Z,-0.70
2019-02-05T23:45:01.876Z,-0.70
2019-02-05T23:47:28.428Z,-0.80
2019-02-05T23:49:55.135Z,-0.80
2019-02-05T23:52:21.785Z,-0.80
2019-02-05T23:54:48.480Z,-0.90
2019-02-05T23:57:15.816Z,-0.90
2019-02-05T23:59:42.629Z,-1.00
